createdAt,value
2023-04-19T00:00:44.824Z,12.30
2023-04-19T00:03:11.947Z,14.17
2023-04-19T00:05:38.802Z,14.40
2023-04-19T00:08:08.785Z,13.40
2023-04-19T00:10:39.996Z,14.40
2023-04-19T00:13:07.058Z,14.30
2023-04-19T00:15:35.114Z,15.10
2023-04-19T00:18:22.147Z,15.23
2023-04-19T00:20:48.894Z,14.13
2023-04-19T00:23:15.638Z,11.93
2023-04-19T00:25:42.432Z,13.90
2023-04-19T00:28:09.185Z,12.10
2023-04-19T00:30:36.057Z,13.47
2023-04-19T00:33:02.840Z,12.43
2023-04-19T00:35:29.549Z,14.27
2023-04-19T00:37:56.325Z,14.47
2023-04-19T00:40:23.166Z,14.53
2023-04-19T00:42:50.025Z,16.40
2023-04-19T00:45:16.845Z,16.60
2023-04-19T00:47:43.692Z,15.63
2023-04-19T00:50:11.192Z,15.47
2023-04-19T00:52:37.849Z,15.10
2023-04-19T00:55:05.569Z,15.33
2023-04-19T00:57:32.408Z,15.97
2023-04-19T00:59:59.298Z,14.13
2023-04-19T01:02:28.540Z,15.80
2023-04-19T01:04:55.682Z,15.80
2023-04-19T01:07:22.514Z,16.67
2023-04-19T01:09:49.373Z,15.90
2023-04-19T01:12:16.208Z,15.93
2023-04-19T01:14:43.036Z,15.70
2023-04-19T01:17:10.177Z,16.00
2023-04-19T01:19:37.486Z,15.57
2023-04-19T01:22:04.675Z,15.20
2023-04-19T01:24:31.832Z,15.67
2023-04-19T01:26:58.602Z,16.80
2023-04-19T01:29:25.424Z,16.20
2023-04-19T01:31:54.013Z,16.73
2023-04-19T01:34:23.080Z,17.07
2023-04-19T01:36:49.958Z,16.00
2023-04-19T01:39:17.077Z,16.13
2023-04-19T01:41:43.853Z,16.93
2023-04-19T01:44:10.712Z,16.70
2023-04-19T01:46:38.921Z,15.80
2023-04-19T01:49:06.088Z,16.80
2023-04-19T01:51:32.814Z,15.80
2023-04-19T01:53:59.596Z,15.83
2023-04-19T01:56:26.442Z,15.63
2023-04-19T01:58:53.242Z,16.00
2023-04-19T02:01:20.187Z,15.93
2023-04-19T02:03:47.229Z,16.03
2023-04-19T02:06:14.378Z,16.30
2023-04-19T02:08:42.271Z,17.83
2023-04-19T02:11:10.438Z,15.73
2023-04-19T02:13:37.535Z,15.80
2023-04-19T02:16:05.985Z,15.77
2023-04-19T02:18:33.339Z,17.73
2023-04-19T02:21:00.234Z,17.20
2023-04-19T02:23:27.033Z,17.60
2023-04-19T02:25:53.876Z,15.80
2023-04-19T02:28:20.671Z,15.80
2023-04-19T02:30:47.377Z,16.47
2023-04-19T02:33:15.767Z,16.47
2023-04-19T02:35:42.460Z,16.30
2023-04-19T02:38:09.224Z,17.53
2023-04-19T02:40:36.081Z,16.50
2023-04-19T02:43:04.284Z,15.83
2023-04-19T02:45:31.519Z,17.63
2023-04-19T02:47:59.660Z,15.83
2023-04-19T02:50:27.261Z,15.80
2023-04-19T02:52:53.974Z,17.30
2023-04-19T02:55:20.804Z,18.13
2023-04-19T02:57:47.580Z,16.27
2023-04-19T03:00:15.121Z,15.83
2023-04-19T03:02:43.950Z,17.30
2023-04-19T03:05:11.003Z,16.53
2023-04-19T03:07:37.805Z,17.23
2023-04-19T03:10:04.958Z,17.30
2023-04-19T03:12:31.674Z,17.80
2023-04-19T03:14:58.386Z,16.47
2023-04-19T03:17:25.083Z,18.30
2023-04-19T03:19:52.501Z,16.37
2023-04-19T03:22:19.277Z,18.07
2023-04-19T03:24:46.147Z,16.87
2023-04-19T03:27:12.920Z,16.57
2023-04-19T03:29:39.728Z,17.47
2023-04-19T03:32:07.575Z,18.00
2023-04-19T03:34:34.326Z,16.20
2023-04-19T03:37:01.083Z,17.27
2023-04-19T03:39:28.259Z,18.07
2023-04-19T03:41:54.982Z,19.20
2023-04-19T03:44:21.858Z,19.13
2023-04-19T03:46:49.023Z,19.80
2023-04-19T03:49:15.882Z,18.30
2023-04-19T03:51:42.544Z,17.63
2023-04-19T03:54:09.301Z,19.30
2023-04-19T03:56:36.097Z,17.43
2023-04-19T03:59:02.808Z,18.57
2023-04-19T04:01:29.617Z,18.93
2023-04-19T04:03:56.566Z,17.77
2023-04-19T04:06:23.358Z,18.07
2023-04-19T04:08:50.218Z,18.47
2023-04-19T04:11:17.002Z,18.27
2023-04-19T04:13:43.842Z,19.50
2023-04-19T04:16:10.702Z,17.03
2023-04-19T04:18:37.584Z,18.70
2023-04-19T04:21:04.503Z,16.63
2023-04-19T04:23:31.232Z,19.30
2023-04-19T04:26:02.461Z,20.33
2023-04-19T04:28:29.178Z,19.47
2023-04-19T04:30:57.416Z,19.50
2023-04-19T04:33:28.479Z,19.63
2023-04-19T04:35:56.340Z,19.70
2023-04-19T04:38:24.950Z,19.43
2023-04-19T04:40:56.230Z,19.60
2023-04-19T04:43:29.927Z,19.20
2023-04-19T04:45:58.234Z,19.17
2023-04-19T04:48:25.346Z,18.73
2023-04-19T04:50:52.125Z,20.73
2023-04-19T04:53:18.954Z,20.17
2023-04-19T04:55:45.828Z,18.83
2023-04-19T04:58:12.684Z,18.37
2023-04-19T05:00:39.498Z,17.80
2023-04-19T05:03:06.422Z,20.00
2023-04-19T05:05:33.708Z,17.77
2023-04-19T05:08:01.182Z,15.80
2023-04-19T05:10:28.068Z,19.90
2023-04-19T05:12:54.722Z,19.00
2023-04-19T05:15:21.510Z,18.70
2023-04-19T05:17:48.347Z,19.73
2023-04-19T05:20:15.152Z,18.80
2023-04-19T05:22:42.044Z,20.13
2023-04-19T05:25:10.660Z,20.97
2023-04-19T05:27:37.496Z,19.37
2023-04-19T05:30:06.046Z,20.40
2023-04-19T05:32:33.076Z,17.77
2023-04-19T05:34:59.819Z,18.43
2023-04-19T05:37:26.500Z,19.87
2023-04-19T05:39:53.294Z,16.87
2023-04-19T05:42:20.024Z,19.03
2023-04-19T05:44:46.853Z,18.80
2023-04-19T05:47:13.627Z,19.53
2023-04-19T05:49:41.960Z,18.40
2023-04-19T05:52:09.490Z,18.13
2023-04-19T05:54:36.317Z,17.90
2023-04-19T05:57:03.981Z,17.60
2023-04-19T05:59:30.780Z,17.03
2023-04-19T06:01:57.635Z,18.17
2023-04-19T06:04:25.046Z,18.97
2023-04-19T06:06:51.904Z,15.90
2023-04-19T06:09:18.825Z,18.13
2023-04-19T06:11:50.539Z,17.23
2023-04-19T06:14:18.669Z,16.90
2023-04-19T06:16:45.993Z,17.13
2023-04-19T06:19:12.749Z,17.50
2023-04-19T06:21:39.556Z,17.50
2023-04-19T06:24:07.356Z,17.40
2023-04-19T06:26:34.238Z,17.77
2023-04-19T06:29:01.286Z,16.43
2023-04-19T06:31:28.101Z,16.10
2023-04-19T06:33:54.935Z,16.43
2023-04-19T06:36:21.625Z,17.40
2023-04-19T06:38:49.942Z,16.60
2023-04-19T06:41:16.958Z,16.23
2023-04-19T06:43:44.707Z,18.00
2023-04-19T06:46:13.841Z,16.70
2023-04-19T06:48:40.852Z,16.70
2023-04-19T06:51:07.909Z,16.00
2023-04-19T06:53:35.591Z,16.90
2023-04-19T06:56:06.598Z,16.60
2023-04-19T06:58:35.141Z,16.53
2023-04-19T07:01:04.447Z,16.60
2023-04-19T07:03:31.685Z,17.50
2023-04-19T07:05:58.568Z,15.57
2023-04-19T07:08:35.040Z,17.77
2023-04-19T07:11:09.514Z,17.70
2023-04-19T07:13:36.251Z,17.07
2023-04-19T07:16:05.797Z,16.47
2023-04-19T07:18:32.772Z,15.63
2023-04-19T07:20:59.589Z,16.57
2023-04-19T07:23:26.249Z,15.60
2023-04-19T07:25:52.990Z,15.30
2023-04-19T07:28:19.709Z,16.63
2023-04-19T07:30:46.492Z,16.00
2023-04-19T07:33:13.442Z,14.67
2023-04-19T07:35:40.448Z,14.40
2023-04-19T07:38:07.367Z,15.80
2023-04-19T07:40:34.232Z,14.53
2023-04-19T07:43:01.068Z,14.70
2023-04-19T07:45:27.785Z,15.87
2023-04-19T07:47:54.506Z,15.60
2023-04-19T07:50:23.099Z,14.87
2023-04-19T07:52:50.162Z,13.87
2023-04-19T07:55:17.159Z,14.80
2023-04-19T07:57:48.071Z,14.70
2023-04-19T08:00:19.017Z,15.50
2023-04-19T08:02:46.646Z,13.80
2023-04-19T08:05:17.794Z,12.23
2023-04-19T08:07:45.776Z,12.60
2023-04-19T08:10:12.959Z,11.60
2023-04-19T08:12:47.756Z,13.20
2023-04-19T08:17:56.566Z,12.63
2023-04-19T08:20:23.491Z,11.93
2023-04-19T08:22:50.260Z,10.87
2023-04-19T08:25:17.426Z,10.57
2023-04-19T08:27:44.160Z,11.50
2023-04-19T08:30:11.185Z,11.47
2023-04-19T08:32:38.142Z,10.80
2023-04-19T08:35:06.022Z,12.00
2023-04-19T08:37:32.742Z,12.03
2023-04-19T08:39:59.535Z,11.60
2023-04-19T08:42:35.499Z,12.23
2023-04-19T08:47:51.911Z,12.20
2023-04-19T08:50:32.352Z,11.17
2023-04-19T08:53:09.056Z,11.70
2023-04-19T08:56:06.684Z,13.03
2023-04-19T08:58:54.909Z,11.00
2023-04-19T09:01:34.564Z,12.30
2023-04-19T09:04:26.377Z,11.17
2023-04-19T09:06:53.446Z,12.03
2023-04-19T09:11:55.394Z,13.53
2023-04-19T09:14:23.171Z,13.90
2023-04-19T09:16:52.162Z,13.33
2023-04-19T09:19:24.096Z,13.93
2023-04-19T09:21:53.920Z,12.83
2023-04-19T09:25:18.684Z,12.70
2023-04-19T09:27:28.061Z,13.30
2023-04-19T09:30:02.392Z,12.70
2023-04-19T09:32:30.487Z,14.17
2023-04-19T09:34:59.802Z,13.50
2023-04-19T09:37:51.482Z,12.00
2023-04-19T09:40:24.606Z,12.10
2023-04-19T09:45:30.176Z,12.80
2023-04-19T09:48:07.670Z,11.80
2023-04-19T09:50:50.556Z,13.55
2023-04-19T09:53:21.442Z,12.10
2023-04-19T09:55:57.670Z,12.30
2023-04-19T09:58:34.361Z,11.83
2023-04-19T10:03:35.463Z,10.30
2023-04-19T10:06:10.752Z,11.20
2023-04-19T10:08:41.385Z,11.70
2023-04-19T10:11:08.304Z,10.83
2023-04-19T10:13:35.159Z,11.80
2023-04-19T10:16:15.768Z,11.53
2023-04-19T10:18:45.934Z,10.60
2023-04-19T10:21:13.778Z,11.87
2023-04-19T10:23:40.875Z,12.43
2023-04-19T10:26:08.789Z,12.63
2023-04-19T10:28:36.711Z,11.20
2023-04-19T10:31:05.366Z,10.13
2023-04-19T10:33:37.085Z,12.77
2023-04-19T10:36:08.347Z,13.23
2023-04-19T10:38:48.213Z,11.63
2023-04-19T10:41:17.807Z,10.47
2023-04-19T10:44:11.657Z,9.83
2023-04-19T10:46:41.430Z,11.47
2023-04-19T10:49:09.880Z,10.80
2023-04-19T10:51:47.032Z,10.43
2023-04-19T10:54:36.556Z,12.20
2023-04-19T10:57:11.440Z,11.67
2023-04-19T10:59:40.575Z,10.50
2023-04-19T11:02:22.593Z,10.50
2023-04-19T11:04:49.723Z,11.70
2023-04-19T11:07:18.326Z,11.43
2023-04-19T11:09:46.369Z,11.03
2023-04-19T11:12:13.955Z,12.50
2023-04-19T11:14:49.011Z,11.67
2023-04-19T11:17:25.256Z,9.70
2023-04-19T11:19:58.742Z,11.30
2023-04-19T11:22:45.762Z,11.57
2023-04-19T11:25:17.391Z,11.20
2023-04-19T11:27:45.834Z,12.20
2023-04-19T11:30:17.170Z,11.70
2023-04-19T11:32:49.221Z,12.83
2023-04-19T11:35:29.060Z,12.40
2023-04-19T11:37:56.971Z,12.47
2023-04-19T11:40:26.284Z,12.17
2023-04-19T11:43:00.690Z,12.57
2023-04-19T11:45:39.734Z,12.70
2023-04-19T11:48:13.319Z,15.30
2023-04-19T11:50:42.296Z,13.60
2023-04-19T11:53:15.294Z,14.07
2023-04-19T11:55:47.367Z,15.50
2023-04-19T11:58:37.798Z,14.70
2023-04-19T12:01:08.859Z,16.37
2023-04-19T12:03:41.320Z,15.57
2023-04-19T12:06:12.648Z,17.53
2023-04-19T12:08:43.501Z,16.57
2023-04-19T12:11:10.267Z,17.87
2023-04-19T12:13:37.131Z,18.10
2023-04-19T12:16:04.612Z,16.33
2023-04-19T12:18:51.666Z,18.33
2023-04-19T12:21:28.985Z,17.77
2023-04-19T12:24:00.319Z,18.63
2023-04-19T12:26:30.505Z,18.57
2023-04-19T12:29:01.729Z,20.43
2023-04-19T12:31:28.785Z,17.73
2023-04-19T12:33:55.630Z,19.40
2023-04-19T12:36:22.644Z,18.40
2023-04-19T12:38:49.442Z,17.90
2023-04-19T12:41:16.290Z,16.90
2023-04-19T12:43:43.090Z,19.13
2023-04-19T12:46:09.931Z,19.83
2023-04-19T12:48:36.692Z,19.47
2023-04-19T12:51:04.209Z,19.27
2023-04-19T12:53:31.103Z,21.40
2023-04-19T12:55:58.558Z,17.70
2023-04-19T12:58:25.393Z,17.70
2023-04-19T13:00:52.144Z,18.87
2023-04-19T13:03:19.077Z,18.80
2023-04-19T13:05:46.122Z,19.00
2023-04-19T13:08:12.892Z,18.07
2023-04-19T13:10:39.680Z,15.93
2023-04-19T13:13:06.498Z,15.63
2023-04-19T13:15:33.265Z,15.27
2023-04-19T13:18:00.053Z,14.50
2023-04-19T13:20:26.846Z,15.77
2023-04-19T13:22:53.593Z,13.90
2023-04-19T13:25:20.456Z,14.63
2023-04-19T13:27:47.245Z,13.73
2023-04-19T13:30:14.368Z,13.10
2023-04-19T13:32:41.146Z,13.57
2023-04-19T13:35:08.332Z,13.27
2023-04-19T13:37:35.039Z,13.30
2023-04-19T13:40:17.343Z,14.70
2023-04-19T13:42:45.330Z,13.50
2023-04-19T13:45:12.419Z,12.63
2023-04-19T13:47:39.154Z,12.43
2023-04-19T13:50:06.539Z,12.80
2023-04-19T13:52:33.403Z,11.53
2023-04-19T13:55:00.207Z,12.30
2023-04-19T13:57:27.127Z,12.37
2023-04-19T13:59:53.848Z,12.80
2023-04-19T14:02:20.924Z,12.20
2023-04-19T14:04:47.704Z,12.80
2023-04-19T14:07:14.451Z,11.93
2023-04-19T14:09:42.361Z,12.47
2023-04-19T14:12:09.423Z,11.70
2023-04-19T14:14:36.396Z,12.13
2023-04-19T14:17:03.335Z,13.00
2023-04-19T14:19:30.087Z,10.87
2023-04-19T14:21:56.867Z,11.03
2023-04-19T14:24:23.675Z,11.90
2023-04-19T14:27:07.017Z,10.47
2023-04-19T14:29:36.842Z,10.57
2023-04-19T14:32:20.874Z,9.43
2023-04-19T14:34:51.431Z,11.50
2023-04-19T14:37:19.092Z,11.93
2023-04-19T14:39:46.237Z,10.47
2023-04-19T14:42:13.150Z,10.33
2023-04-19T14:44:40.795Z,9.73
2023-04-19T14:47:07.675Z,10.07
2023-04-19T14:49:34.466Z,11.83
2023-04-19T14:52:01.400Z,10.63
2023-04-19T14:54:28.174Z,11.40
2023-04-19T14:56:54.907Z,11.53
2023-04-19T14:59:21.749Z,11.77
2023-04-19T15:01:48.668Z,11.97
2023-04-19T15:04:16.561Z,12.73
2023-04-19T15:06:43.434Z,11.80
2023-04-19T15:09:10.417Z,11.50
2023-04-19T15:11:37.272Z,11.50
2023-04-19T15:14:04.226Z,11.40
2023-04-19T15:16:31.325Z,11.77
2023-04-19T15:18:58.320Z,11.67
2023-04-19T15:21:25.119Z,10.80
2023-04-19T15:23:51.964Z,11.80
2023-04-19T15:26:18.882Z,13.77
2023-04-19T15:28:45.737Z,12.27
2023-04-19T15:31:12.570Z,11.97
2023-04-19T15:33:39.457Z,12.17
2023-04-19T15:36:06.491Z,12.07
2023-04-19T15:38:33.619Z,12.20
2023-04-19T15:41:01.615Z,12.33
2023-04-19T15:43:28.907Z,10.93
2023-04-19T15:45:55.864Z,11.87
2023-04-19T15:48:22.604Z,11.70
2023-04-19T15:50:49.603Z,12.63
2023-04-19T15:53:16.822Z,12.00
2023-04-19T15:55:44.236Z,12.13
2023-04-19T15:58:10.975Z,13.17
2023-04-19T16:00:37.825Z,13.13
2023-04-19T16:03:04.833Z,11.90
2023-04-19T16:05:31.750Z,13.40
2023-04-19T16:08:03.495Z,13.90
2023-04-19T16:10:30.432Z,13.77
2023-04-19T16:12:57.197Z,13.60
2023-04-19T16:15:24.231Z,12.90
2023-04-19T16:17:52.322Z,13.23
2023-04-19T16:20:20.407Z,13.97
2023-04-19T16:22:48.111Z,13.77
2023-04-19T16:25:16.111Z,14.10
2023-04-19T16:27:44.601Z,13.63
2023-04-19T16:30:12.320Z,14.27
2023-04-19T16:32:39.770Z,14.80
2023-04-19T16:35:07.348Z,15.13
2023-04-19T16:37:34.785Z,14.07
2023-04-19T16:40:10.611Z,13.90
2023-04-19T16:42:38.600Z,14.40
2023-04-19T16:45:06.404Z,15.07
2023-04-19T16:47:33.901Z,14.63
2023-04-19T16:50:01.674Z,13.47
2023-04-19T16:52:31.232Z,14.20
2023-04-19T16:55:00.040Z,15.90
2023-04-19T16:57:27.076Z,14.20
2023-04-19T16:59:53.780Z,16.33
2023-04-19T17:02:20.698Z,15.43
2023-04-19T17:04:48.052Z,15.33
2023-04-19T17:07:15.144Z,14.47
2023-04-19T17:09:42.050Z,14.73
2023-04-19T17:12:08.948Z,14.53
2023-04-19T17:14:35.931Z,14.40
2023-04-19T17:17:02.694Z,13.83
2023-04-19T17:19:29.457Z,14.80
2023-04-19T17:21:56.568Z,13.20
2023-04-19T17:24:23.842Z,11.93
2023-04-19T17:26:50.607Z,11.03
2023-04-19T17:29:17.456Z,11.70
2023-04-19T17:31:44.536Z,10.83
2023-04-19T17:34:11.350Z,8.80
2023-04-19T17:36:38.132Z,7.40
2023-04-19T17:39:06.876Z,4.80
2023-04-19T17:41:34.303Z,3.97
2023-04-19T17:44:01.050Z,2.97
2023-04-19T17:46:27.781Z,3.20
2023-04-19T17:48:55.510Z,4.53
2023-04-19T17:51:22.384Z,3.73
2023-04-19T17:53:49.230Z,2.93
2023-04-19T17:56:16.048Z,5.27
2023-04-19T17:58:42.884Z,3.63
2023-04-19T18:01:10.475Z,3.83
2023-04-19T18:03:38.318Z,3.30
2023-04-19T18:06:05.920Z,4.10
2023-04-19T18:08:32.730Z,4.93
2023-04-19T18:10:59.435Z,2.67
2023-04-19T18:13:26.748Z,3.10
2023-04-19T18:15:53.525Z,3.70
2023-04-19T18:18:20.284Z,4.47
2023-04-19T18:20:47.052Z,2.73
2023-04-19T18:23:13.863Z,3.13
2023-04-19T18:25:40.685Z,3.93
2023-04-19T18:28:07.459Z,3.70
2023-04-19T18:30:34.684Z,3.13
2023-04-19T18:33:01.668Z,3.73
2023-04-19T18:35:28.438Z,3.90
2023-04-19T18:37:55.283Z,3.20
2023-04-19T18:40:22.040Z,3.50
2023-04-19T18:42:48.880Z,3.90
2023-04-19T18:45:15.970Z,3.33
2023-04-19T18:47:43.245Z,3.30
2023-04-19T18:50:10.519Z,3.57
2023-04-19T18:52:38.286Z,4.73
2023-04-19T18:55:06.708Z,5.10
2023-04-19T18:57:35.413Z,3.80
2023-04-19T19:00:06.340Z,4.13
2023-04-19T19:02:36.396Z,3.93
2023-04-19T19:05:07.418Z,5.47
2023-04-19T19:07:37.230Z,4.20
2023-04-19T19:12:39.681Z,3.90
2023-04-19T19:15:08.684Z,3.90
2023-04-19T19:17:36.861Z,3.27
2023-04-19T19:20:05.678Z,4.23
2023-04-19T19:22:34.031Z,3.50
2023-04-19T19:25:01.624Z,4.30
2023-04-19T19:27:29.308Z,3.40
2023-04-19T19:29:56.667Z,3.67
2023-04-19T19:32:24.235Z,4.57
2023-04-19T19:34:56.378Z,3.40
2023-04-19T19:37:28.624Z,4.63
2023-04-19T19:39:56.733Z,3.83
2023-04-19T19:42:25.019Z,4.77
2023-04-19T19:44:56.831Z,5.23
2023-04-19T19:47:33.491Z,4.10
2023-04-19T19:50:46.639Z,3.77
2023-04-19T19:52:52.528Z,5.40
2023-04-19T19:55:20.465Z,3.87
2023-04-19T19:58:21.004Z,5.67
2023-04-19T20:00:45.156Z,5.63
2023-04-19T20:03:19.010Z,4.33
2023-04-19T20:05:57.467Z,5.80
2023-04-19T20:08:25.185Z,4.30
2023-04-19T20:10:58.335Z,4.53
2023-04-19T20:13:27.031Z,4.80
2023-04-19T20:15:54.957Z,5.40
2023-04-19T20:18:23.018Z,15.07
2023-04-19T20:20:51.867Z,11.90
2023-04-19T20:23:21.805Z,7.90
2023-04-19T20:25:50.420Z,6.53
2023-04-19T20:28:19.222Z,5.73
2023-04-19T20:30:46.283Z,6.10
2023-04-19T20:33:14.671Z,7.70
2023-04-19T20:35:42.183Z,8.00
2023-04-19T20:38:09.758Z,12.93
2023-04-19T20:40:36.601Z,10.27
2023-04-19T20:43:03.451Z,7.67
2023-04-19T20:45:30.330Z,6.23
2023-04-19T20:47:58.586Z,5.80
2023-04-19T20:50:25.716Z,9.27
2023-04-19T20:52:52.641Z,5.70
2023-04-19T20:55:19.571Z,9.10
2023-04-19T20:57:46.522Z,5.20
2023-04-19T21:00:16.725Z,4.53
2023-04-19T21:02:44.377Z,6.23
2023-04-19T21:05:11.621Z,5.03
2023-04-19T21:07:38.532Z,5.83
2023-04-19T21:10:06.196Z,4.73
2023-04-19T21:12:34.333Z,4.83
2023-04-19T21:15:01.247Z,4.80
2023-04-19T21:17:28.056Z,5.77
2023-04-19T21:19:54.841Z,4.70
2023-04-19T21:22:21.582Z,5.37
2023-04-19T21:24:48.382Z,4.50
2023-04-19T21:27:15.163Z,5.10
2023-04-19T21:29:41.900Z,4.60
2023-04-19T21:32:08.685Z,5.23
2023-04-19T21:34:35.411Z,6.13
2023-04-19T21:37:02.234Z,5.40
2023-04-19T21:39:29.003Z,4.83
2023-04-19T21:41:56.212Z,5.10
2023-04-19T21:44:22.987Z,5.40
2023-04-19T21:46:49.767Z,5.23
2023-04-19T21:49:16.782Z,5.13
2023-04-19T21:51:43.868Z,4.80
2023-04-19T21:54:10.793Z,6.43
2023-04-19T21:56:39.505Z,4.73
2023-04-19T21:59:09.087Z,4.87
2023-04-19T22:01:38.574Z,4.70
2023-04-19T22:04:05.926Z,5.17
2023-04-19T22:06:33.634Z,8.63
2023-04-19T22:09:02.806Z,6.00
2023-04-19T22:11:30.314Z,5.03
2023-04-19T22:13:57.837Z,5.00
2023-04-19T22:16:28.229Z,4.80
2023-04-19T22:18:55.027Z,4.73
2023-04-19T22:21:21.828Z,4.80
2023-04-19T22:23:48.588Z,5.40
2023-04-19T22:26:15.523Z,5.23
2023-04-19T22:28:42.310Z,5.70
2023-04-19T22:31:09.109Z,6.07
2023-04-19T22:33:35.874Z,6.03
2023-04-19T22:36:02.639Z,4.70
2023-04-19T22:38:29.364Z,5.43
2023-04-19T22:40:56.170Z,4.77
2023-04-19T22:43:23.045Z,5.77
2023-04-19T22:45:49.928Z,6.63
2023-04-19T22:48:17.079Z,5.90
2023-04-19T22:50:45.206Z,5.80
2023-04-19T22:53:12.821Z,6.03
2023-04-19T22:55:42.906Z,5.40
2023-04-19T22:58:10.620Z,5.30
2023-04-19T23:00:37.965Z,5.77
2023-04-19T23:03:05.149Z,5.83
2023-04-19T23:05:33.574Z,8.90
2023-04-19T23:08:00.299Z,5.57
2023-04-19T23:10:27.193Z,6.53
2023-04-19T23:12:54.224Z,7.40
2023-04-19T23:15:21.409Z,8.53
2023-04-19T23:17:48.243Z,8.10
2023-04-19T23:20:15.470Z,8.17
2023-04-19T23:22:42.328Z,7.07
2023-04-19T23:25:09.635Z,7.07
2023-04-19T23:27:36.453Z,7.80
2023-04-19T23:30:05.625Z,7.80
2023-04-19T23:32:32.513Z,7.87
2023-04-19T23:34:59.449Z,7.00
2023-04-19T23:37:26.297Z,7.10
2023-04-19T23:39:52.997Z,7.17
2023-04-19T23:42:19.882Z,6.93
2023-04-19T23:44:46.626Z,7.07
2023-04-19T23:47:13.422Z,7.10
2023-04-19T23:49:40.395Z,6.90
2023-04-19T23:52:07.210Z,5.90
2023-04-19T23:54:37.074Z,6.03
2023-04-19T23:57:04.147Z,6.80
2023-04-19T23:59:32.917Z,7.10
